Time;durP1;ratioP1;P1;durP2;ratioP2;P2;SDS_P1;SDS_P2;PMS_P1;PMS_P2;Temp;Humidity;BMP_temperature;BMP_pressure;BME280_temperature;BME280_humidity;BME280_pressure;Samples;Min_cycle;Max_cycle;Signal;HPM_P1;HPM_P2
2023/08/06 00:00:37;;;;;;;;;;;;;;;25.03;42.66;100869.63;5018273;28;19924;-83
2023/08/06 00:03:02;;;;;;;;;;;;;;;25.04;42.75;100868.47;5025279;28;20004;-83
2023/08/06 00:05:28;;;;;;;;;;;;;;;25.04;42.76;100873.94;5018795;28;20130;-84
2023/08/06 00:07:53;;;;;;;;;;;;;;;25.04;42.83;100868.47;5020718;28;19945;-84
2023/08/06 00:10:18;;;;;;;;;;;;;;;25.04;42.70;100873.94;5034496;28;20509;-84
2023/08/06 00:12:44;;;;;;;;;;;;;;;25.03;42.78;100875.09;5023959;28;19917;-84
2023/08/06 00:15:10;;;;;;;;;;;;;;;25.00;42.91;100874.63;5021628;28;19917;-83
2023/08/06 00:17:35;;;;;;;;;;;;;;;24.99;42.85;100873.03;5015804;28;19976;-84
2023/08/06 00:20:04;;;;;;;;;;;;;;;24.99;42.95;100872.22;5028555;28;19953;-83
2023/08/06 00:22:30;;;;;;;;;;;;;;;24.99;42.98;100881.25;5023849;28;19924;-84
2023/08/06 00:24:57;;;;;;;;;;;;;;;24.98;42.99;100878.84;5026560;28;19917;-84
2023/08/06 00:27:22;;;;;;;;;;;;;;;24.95;43.20;100880.28;5019244;28;20000;-84
2023/08/06 00:29:48;;;;;;;;;;;;;;;24.91;43.28;100873.91;5015719;28;19995;-83
2023/08/06 00:32:13;;;;;;;;;;;;;;;24.89;43.15;100865.22;4997587;28;19917;-84
2023/08/06 00:34:38;;;;;;;;;;;;;;;24.89;43.36;100865.22;5025947;28;19928;-84
2023/08/06 00:37:03;;;;;;;;;;;;;;;24.91;43.35;100851.19;5004480;28;20369;-84
2023/08/06 00:39:29;;;;;;;;;;;;;;;24.91;43.46;100849.25;5018865;28;19927;-84
2023/08/06 00:41:54;;;;;;;;;;;;;;;24.91;43.37;100842.97;5023995;28;19924;-84
2023/08/06 00:44:19;;;;;;;;;;;;;;;24.88;43.39;100838.97;5027357;28;19917;-84
2023/08/06 00:46:45;;;;;;;;;;;;;;;24.87;43.57;100842.84;5022744;28;19987;-83
2023/08/06 00:49:10;;;;;;;;;;;;;;;24.89;43.77;100834.28;5026355;28;19921;-84
2023/08/06 00:51:35;;;;;;;;;;;;;;;24.90;43.65;100838.63;5023876;28;19971;-84
2023/08/06 00:54:02;;;;;;;;;;;;;;;24.90;43.70;100844.09;5023965;28;19921;-84
2023/08/06 00:56:27;;;;;;;;;;;;;;;24.89;43.65;100845.25;5020798;28;19922;-83
2023/08/06 00:58:52;;;;;;;;;;;;;;;24.87;43.86;100847.53;5019348;28;19971;-84
2023/08/06 01:01:18;;;;;;;;;;;;;;;24.86;43.83;100844.00;5025448;28;19932;-83
2023/08/06 01:03:43;;;;;;;;;;;;;;;24.87;43.87;100853.81;5023128;28;19921;-84
2023/08/06 01:06:09;;;;;;;;;;;;;;;24.87;43.87;100848.34;5026466;28;20316;-83
2023/08/06 01:08:49;;;;;;;;;;;;;;;24.85;44.00;100850.63;5027829;28;19921;-83
2023/08/06 01:11:24;;;;;;;;;;;;;;;24.84;44.05;100851.75;5024313;28;19922;-84
2023/08/06 01:13:54;;;;;;;;;;;;;;;24.82;44.30;100856.78;5023401;28;19921;-84
2023/08/06 01:16:20;;;;;;;;;;;;;;;24.83;44.18;100852.09;5003564;28;19925;-84
2023/08/06 01:18:49;;;;;;;;;;;;;;;24.83;44.38;100860.31;5026935;28;19925;-84
2023/08/06 01:21:14;;;;;;;;;;;;;;;24.83;44.26;100857.59;5023764;28;19967;-84
2023/08/06 01:23:40;;;;;;;;;;;;;;;24.82;44.77;100850.50;5023906;28;19917;-84
2023/08/06 01:26:11;;;;;;;;;;;;;;;24.77;44.69;100851.50;5024118;28;19924;-84
2023/08/06 01:28:49;;;;;;;;;;;;;;;24.75;44.71;100853.00;5028455;28;20404;-84
2023/08/06 01:31:18;;;;;;;;;;;;;;;24.73;44.92;100842.38;5031763;28;20508;-84
2023/08/06 01:33:45;;;;;;;;;;;;;;;24.71;45.13;100839.97;5025285;28;20344;-84
2023/08/06 01:36:10;;;;;;;;;;;;;;;24.68;45.38;100835.19;5019455;28;19921;-84
2023/08/06 01:38:36;;;;;;;;;;;;;;;24.65;45.49;100826.84;5026496;28;19940;-83
2023/08/06 01:41:01;;;;;;;;;;;;;;;24.67;45.42;100832.78;5020414;28;19976;-83
2023/08/06 01:43:26;;;;;;;;;;;;;;;24.69;45.57;100833.25;5028246;28;19928;-83
2023/08/06 01:45:52;;;;;;;;;;;;;;;24.70;45.36;100834.84;5031376;28;20293;-83
2023/08/06 01:48:17;;;;;;;;;;;;;;;24.67;45.84;100830.84;5029202;28;20734;-83
2023/08/06 01:50:42;;;;;;;;;;;;;;;24.62;46.17;100827.53;5024148;28;20397;-84
2023/08/06 01:53:08;;;;;;;;;;;;;;;24.61;45.74;100823.22;5007878;28;19975;-84
2023/08/06 01:55:33;;;;;;;;;;;;;;;24.63;45.85;100823.66;5018368;28;19933;-84
2023/08/06 01:57:58;;;;;;;;;;;;;;;24.63;45.94;100815.44;5026815;28;20923;-83
2023/08/06 02:00:24;;;;;;;;;;;;;;;24.61;46.18;100823.22;5029948;28;19921;-84
2023/08/06 02:02:49;;;;;;;;;;;;;;;24.64;45.96;100822.53;5027706;28;19932;-85
2023/08/06 02:05:14;;;;;;;;;;;;;;;24.58;46.63;100813.72;5021901;28;20044;-84
2023/08/06 02:07:40;;;;;;;;;;;;;;;24.54;46.03;100807.31;5003222;28;19963;-84
2023/08/06 02:10:05;;;;;;;;;;;;;;;24.58;46.10;100819.19;5025228;28;19947;-84
2023/08/06 02:12:31;;;;;;;;;;;;;;;24.61;45.97;100806.78;5011837;28;19974;-84
2023/08/06 02:14:56;;;;;;;;;;;;;;;24.63;46.13;100804.50;5028156;28;19928;-84
2023/08/06 02:17:21;;;;;;;;;;;;;;;24.62;46.02;100803.69;5012384;28;19925;-84
2023/08/06 02:19:46;;;;;;;;;;;;;;;24.61;46.42;100795.81;5024545;28;19927;-84
2023/08/06 02:22:12;;;;;;;;;;;;;;;24.59;46.44;100779.69;5028331;28;19916;-84
2023/08/06 02:24:37;;;;;;;;;;;;;;;24.56;46.57;100783.13;5007252;28;19917;-84
2023/08/06 02:27:02;;;;;;;;;;;;;;;24.56;46.35;100779.59;5027525;28;19956;-84
2023/08/06 02:29:28;;;;;;;;;;;;;;;24.57;46.45;100781.19;5027267;28;20343;-84
2023/08/06 02:31:53;;;;;;;;;;;;;;;24.53;46.56;100772.84;5002673;28;19918;-84
2023/08/06 02:34:18;;;;;;;;;;;;;;;24.51;46.58;100769.66;5009396;28;19925;-84
2023/08/06 02:36:44;;;;;;;;;;;;;;;24.51;46.56;100760.63;5024329;28;21356;-84
2023/08/06 02:39:09;;;;;;;;;;;;;;;24.52;46.65;100762.25;5026258;28;20514;-84
2023/08/06 02:41:34;;;;;;;;;;;;;;;24.52;46.68;100763.03;5019816;28;20442;-84
2023/08/06 02:43:59;;;;;;;;;;;;;;;24.51;46.58;100757.91;5002733;28;20575;-84
2023/08/06 02:46:25;;;;;;;;;;;;;;;24.52;46.41;100754.03;5001393;28;19917;-84
2023/08/06 02:48:50;;;;;;;;;;;;;;;24.53;46.59;100741.94;5021677;28;19917;-84
2023/08/06 02:51:15;;;;;;;;;;;;;;;24.52;46.53;100740.31;5021713;28;19924;-85
2023/08/06 02:53:41;;;;;;;;;;;;;;;24.52;46.50;100732.09;5022655;28;19917;-85
2023/08/06 02:56:06;;;;;;;;;;;;;;;24.53;46.50;100736.44;5010541;28;19983;-85
2023/08/06 02:58:31;;;;;;;;;;;;;;;24.55;46.45;100737.69;5026330;28;20423;-86
2023/08/06 03:01:04;;;;;;;;;;;;;;;24.56;46.38;100738.50;5028957;28;20014;-85
2023/08/06 03:03:31;;;;;;;;;;;;;;;24.55;46.42;100736.91;5001241;28;20405;-86
2023/08/06 03:05:56;;;;;;;;;;;;;;;24.54;46.55;100732.56;5010601;28;19921;-86
2023/08/06 03:08:22;;;;;;;;;;;;;;;24.52;46.58;100732.91;5020659;28;20075;-86
2023/08/06 03:10:50;;;;;;;;;;;;;;;24.48;46.79;100737.47;5031815;28;19970;-86
2023/08/06 03:13:16;;;;;;;;;;;;;;;24.46;46.93;100730.75;5024087;28;19957;-86
2023/08/06 03:15:41;;;;;;;;;;;;;;;24.43;47.01;100725.97;5030628;28;19921;-86
2023/08/06 03:18:07;;;;;;;;;;;;;;;24.42;46.84;100727.91;5023957;28;19940;-86
2023/08/06 03:20:32;;;;;;;;;;;;;;;24.44;46.87;100713.88;5027751;28;20007;-87
2023/08/06 03:22:58;;;;;;;;;;;;;;;24.39;47.18;100712.94;5032260;28;20269;-87
2023/08/06 03:25:23;;;;;;;;;;;;;;;24.36;47.12;100721.03;5009677;28;19925;-86
2023/08/06 03:27:48;;;;;;;;;;;;;;;24.32;47.01;100709.97;5028390;28;19921;-87
2023/08/06 03:30:14;;;;;;;;;;;;;;;24.30;47.15;100715.00;5024759;28;19922;-87
2023/08/06 03:32:39;;;;;;;;;;;;;;;24.32;47.02;100720.13;5021233;28;19925;-87
2023/08/06 03:35:05;;;;;;;;;;;;;;;24.29;47.04;100713.41;5026888;28;20012;-88
2023/08/06 03:37:30;;;;;;;;;;;;;;;24.28;47.20;100706.28;5006267;28;20290;-87
2023/08/06 03:39:55;;;;;;;;;;;;;;;24.29;47.05;100709.84;5025619;28;20044;-87
2023/08/06 03:42:20;;;;;;;;;;;;;;;24.27;47.13;100692.94;5022895;28;19971;-87
2023/08/06 03:44:47;;;;;;;;;;;;;;;24.26;47.15;100703.09;5024431;28;20653;-87
2023/08/06 03:47:12;;;;;;;;;;;;;;;24.26;46.94;100694.88;5028253;28;19960;-87
2023/08/06 03:49:38;;;;;;;;;;;;;;;24.27;46.92;100693.75;5024240;28;19925;-88
2023/08/06 03:52:03;;;;;;;;;;;;;;;24.29;46.98;100680.53;5009890;28;20431;-88
2023/08/06 03:54:29;;;;;;;;;;;;;;;24.28;47.02;100676.19;5024285;28;20554;-87
2023/08/06 03:56:55;;;;;;;;;;;;;;;24.28;46.90;100678.91;5024286;28;20034;-87
2023/08/06 03:59:20;;;;;;;;;;;;;;;24.29;46.88;100668.78;5007759;28;19968;-87
2023/08/06 04:01:45;;;;;;;;;;;;;;;24.31;46.89;100674.72;5031236;28;19921;-88
2023/08/06 04:04:11;;;;;;;;;;;;;;;24.32;46.88;100670.84;5023232;28;20319;-88
2023/08/06 04:06:36;;;;;;;;;;;;;;;24.31;46.77;100661.81;5029186;28;19921;-88
2023/08/06 04:09:01;;;;;;;;;;;;;;;24.32;46.87;100662.63;5027340;28;19963;-88
2023/08/06 04:11:27;;;;;;;;;;;;;;;24.33;46.69;100665.03;5021124;28;19917;-87
2023/08/06 04:13:54;;;;;;;;;;;;;;;24.31;46.94;100655.56;5026025;28;19979;-87
2023/08/06 04:16:19;;;;;;;;;;;;;;;24.30;46.71;100652.03;5028511;28;19925;-87
2023/08/06 04:18:45;;;;;;;;;;;;;;;24.30;46.71;100652.03;5031332;28;19996;-88
2023/08/06 04:21:11;;;;;;;;;;;;;;;24.31;46.76;100655.56;5026436;28;20471;-88
2023/08/06 04:23:36;;;;;;;;;;;;;;;24.34;46.73;100644.72;5025939;28;20004;-88
2023/08/06 04:26:01;;;;;;;;;;;;;;;24.32;46.73;100638.78;5023332;28;19976;-88
2023/08/06 04:28:27;;;;;;;;;;;;;;;24.31;46.64;100639.94;5028271;28;19925;-89
2023/08/06 04:30:53;;;;;;;;;;;;;;;24.31;46.61;100631.72;5025767;28;19925;-89
2023/08/06 04:33:18;;;;;;;;;;;;;;;24.31;46.70;100628.97;5011801;28;19925;-88
2023/08/06 04:35:44;;;;;;;;;;;;;;;24.29;46.81;100625.78;5021328;28;19929;-88
2023/08/06 04:38:09;;;;;;;;;;;;;;;24.26;46.87;100623.72;5004406;28;20381;-87
2023/08/06 04:40:35;;;;;;;;;;;;;;;24.24;47.17;100617.78;5016190;28;19918;-87
2023/08/06 04:43:00;;;;;;;;;;;;;;;24.23;47.01;100613.41;5026140;28;19921;-87
2023/08/06 04:45:26;;;;;;;;;;;;;;;24.24;47.07;100615.03;5030040;28;19921;-88
2023/08/06 04:47:51;;;;;;;;;;;;;;;24.26;47.05;100603.75;5033306;28;19918;-88
2023/08/06 04:50:16;;;;;;;;;;;;;;;24.25;46.91;100597.47;5029209;28;19917;-88
2023/08/06 04:52:42;;;;;;;;;;;;;;;24.26;47.07;100590.84;5030009;28;20059;-87
2023/08/06 04:55:07;;;;;;;;;;;;;;;24.25;46.95;100586.53;5025761;28;19917;-87
2023/08/06 04:57:32;;;;;;;;;;;;;;;24.26;47.06;100579.91;5014405;28;19925;-87
2023/08/06 04:59:58;;;;;;;;;;;;;;;24.26;47.00;100582.63;5028423;28;20345;-88
2023/08/06 05:02:23;;;;;;;;;;;;;;;24.27;46.96;100576.03;5034229;28;19928;-87
2023/08/06 05:04:48;;;;;;;;;;;;;;;24.28;46.88;100585.81;5021844;28;19925;-88
2023/08/06 05:07:14;;;;;;;;;;;;;;;24.29;46.85;100575.69;5028517;28;20297;-87
2023/08/06 05:09:39;;;;;;;;;;;;;;;24.28;46.89;100579.56;5035216;28;19923;-87
2023/08/06 05:12:05;;;;;;;;;;;;;;;24.28;46.93;100579.56;5027603;28;19960;-87
2023/08/06 05:14:30;;;;;;;;;;;;;;;24.26;46.94;100571.69;5025675;28;19927;-87
2023/08/06 05:16:55;;;;;;;;;;;;;;;24.28;46.93;100576.81;5029479;28;19921;-87
2023/08/06 05:19:20;;;;;;;;;;;;;;;24.24;47.08;100571.25;5027674;28;19921;-87
2023/08/06 05:21:46;;;;;;;;;;;;;;;24.21;47.14;100571.09;5018398;28;19925;-86
2023/08/06 05:24:12;;;;;;;;;;;;;;;24.21;47.12;100565.63;5021703;28;19917;-87
2023/08/06 05:26:37;;;;;;;;;;;;;;;24.20;47.13;100561.31;5014127;28;19928;-87
2023/08/06 05:29:02;;;;;;;;;;;;;;;24.17;47.14;100562.78;5032667;28;19939;-88
2023/08/06 05:31:28;;;;;;;;;;;;;;;24.17;47.40;100557.31;5028009;28;19920;-87
2023/08/06 05:33:54;;;;;;;;;;;;;;;24.20;47.30;100562.09;5034624;28;19963;-88
2023/08/06 05:36:19;;;;;;;;;;;;;;;24.22;47.15;100559.00;5025211;28;19925;-87
2023/08/06 05:38:45;;;;;;;;;;;;;;;24.22;47.17;100556.28;5027233;28;19928;-88
2023/08/06 05:41:10;;;;;;;;;;;;;;;24.21;47.26;100560.94;5030044;28;19924;-87
2023/08/06 05:43:35;;;;;;;;;;;;;;;24.21;47.39;100552.75;5026952;28;19917;-88
2023/08/06 05:46:01;;;;;;;;;;;;;;;24.22;47.35;100561.75;5017603;28;20306;-87
2023/08/06 05:48:28;;;;;;;;;;;;;;;24.23;47.21;100549.66;5027583;28;21736;-87
2023/08/06 05:50:53;;;;;;;;;;;;;;;24.25;47.35;100558.34;5020859;28;19918;-88
2023/08/06 05:53:19;;;;;;;;;;;;;;;24.23;47.36;100553.19;5031460;28;19975;-87
2023/08/06 05:55:45;;;;;;;;;;;;;;;24.21;47.49;100549.19;5030214;28;19922;-87
2023/08/06 05:58:10;;;;;;;;;;;;;;;24.23;47.43;100550.44;5008714;28;19921;-87
2023/08/06 06:00:35;;;;;;;;;;;;;;;24.25;47.30;100553.66;5021456;28;20366;-87
2023/08/06 06:03:01;;;;;;;;;;;;;;;24.24;47.36;100556.75;5023749;28;19971;-88
2023/08/06 06:05:26;;;;;;;;;;;;;;;24.28;47.45;100557.66;5010459;28;19987;-86
2023/08/06 06:07:52;;;;;;;;;;;;;;;24.28;47.47;100550.25;5032058;28;19917;-87
2023/08/06 06:10:17;;;;;;;;;;;;;;;24.30;47.47;100547.97;5012527;28;19921;-87
2023/08/06 06:12:42;;;;;;;;;;;;;;;24.31;47.66;100541.34;5025924;28;20361;-88
2023/08/06 06:15:08;;;;;;;;;;;;;;;24.31;47.78;100530.41;5027223;28;19917;-87
2023/08/06 06:17:34;;;;;;;;;;;;;;;24.31;47.51;100529.63;5030063;28;19925;-87
2023/08/06 06:19:59;;;;;;;;;;;;;;;24.26;47.73;100533.34;5023063;28;19929;-86
2023/08/06 06:22:24;;;;;;;;;;;;;;;24.25;47.92;100523.56;5024900;28;19922;-87
2023/08/06 06:24:49;;;;;;;;;;;;;;;24.27;48.04;100523.22;5024149;28;19921;-87
2023/08/06 06:27:15;;;;;;;;;;;;;;;24.23;47.94;100522.28;5026954;28;19928;-87
2023/08/06 06:29:40;;;;;;;;;;;;;;;24.24;48.10;100530.19;5024372;28;19975;-89
2023/08/06 06:32:06;;;;;;;;;;;;;;;24.23;48.06;100517.59;5019074;28;19917;-86
2023/08/06 06:34:31;;;;;;;;;;;;;;;24.29;48.13;100515.47;5029776;28;19962;-87
2023/08/06 06:36:56;;;;;;;;;;;;;;;24.32;47.98;100510.09;5025346;28;20051;-87
2023/08/06 06:39:21;;;;;;;;;;;;;;;24.33;48.19;100508.94;5029828;28;19962;-87
2023/08/06 06:41:47;;;;;;;;;;;;;;;24.24;48.18;100512.94;5024776;28;19932;-86
2023/08/06 06:44:13;;;;;;;;;;;;;;;24.22;48.36;100515.22;5023223;28;19973;-87
2023/08/06 06:46:38;;;;;;;;;;;;;;;24.24;48.24;100500.06;5020588;28;19921;-87
2023/08/06 06:49:03;;;;;;;;;;;;;;;24.18;48.77;100509.63;5027201;28;20004;-87
2023/08/06 06:51:29;;;;;;;;;;;;;;;24.20;48.44;100512.81;5022370;28;19932;-87
2023/08/06 06:53:54;;;;;;;;;;;;;;;24.23;48.55;100514.06;5024534;28;20396;-87
2023/08/06 06:56:19;;;;;;;;;;;;;;;24.29;48.18;100510.00;5022291;28;19928;-87
2023/08/06 06:58:44;;;;;;;;;;;;;;;24.34;48.28;100509.75;5031288;28;19924;-86
2023/08/06 07:01:11;;;;;;;;;;;;;;;24.33;48.36;100510.91;5010832;28;19940;-86
2023/08/06 07:03:36;;;;;;;;;;;;;;;24.33;48.27;100503.47;5011215;28;19918;-85
2023/08/06 07:06:03;;;;;;;;;;;;;;;24.25;48.44;100507.13;5033896;28;19927;-85
2023/08/06 07:08:28;;;;;;;;;;;;;;;24.23;48.49;100500.38;5014783;28;19928;-86
2023/08/06 07:11:04;;;;;;;;;;;;;;;24.17;48.84;100502.56;5020866;28;19917;-85
2023/08/06 07:13:29;;;;;;;;;;;;;;;24.20;48.59;100503.81;5010680;28;20150;-85
2023/08/06 07:15:55;;;;;;;;;;;;;;;24.21;49.19;100506.19;5023977;28;20289;-85
2023/08/06 07:18:20;;;;;;;;;;;;;;;24.24;48.41;100505.53;5022938;28;19921;-85
2023/08/06 07:20:49;;;;;;;;;;;;;;;24.32;48.24;100504.63;4996367;28;19917;-85
2023/08/06 07:23:14;;;;;;;;;;;;;;;24.39;48.36;100495.81;5024526;28;19924;-84
2023/08/06 07:25:40;;;;;;;;;;;;;;;24.46;48.30;100504.25;5019698;28;19917;-84
2023/08/06 07:28:05;;;;;;;;;;;;;;;24.50;48.28;100501.59;5024251;28;20365;-84
2023/08/06 07:30:30;;;;;;;;;;;;;;;24.56;48.20;100498.25;5024289;28;19939;-84
2023/08/06 07:32:56;;;;;;;;;;;;;;;24.60;48.02;100495.66;5022336;28;20373;-85
2023/08/06 07:35:21;;;;;;;;;;;;;;;24.63;47.78;100492.22;5021245;28;19928;-85
2023/08/06 07:37:46;;;;;;;;;;;;;;;24.53;48.35;100492.69;5022882;28;19929;-85
2023/08/06 07:40:12;;;;;;;;;;;;;;;24.58;48.40;100486.94;5004481;28;19924;-85
2023/08/06 07:42:37;;;;;;;;;;;;;;;24.58;48.29;100485.00;5028283;28;19924;-85
2023/08/06 07:45:03;;;;;;;;;;;;;;;24.56;48.33;100484.56;5005279;28;20455;-84
2023/08/06 07:47:28;;;;;;;;;;;;;;;24.56;48.12;100481.03;5022112;28;19928;-85
2023/08/06 07:49:53;;;;;;;;;;;;;;;24.51;48.62;100484.03;5024859;28;20378;-85
2023/08/06 07:52:19;;;;;;;;;;;;;;;24.52;48.34;100480.13;5025269;28;19928;-85
2023/08/06 07:54:44;;;;;;;;;;;;;;;24.56;48.47;100481.03;5023562;28;20539;-85
2023/08/06 07:57:10;;;;;;;;;;;;;;;24.58;48.38;100487.75;5023808;28;19932;-85
2023/08/06 07:59:35;;;;;;;;;;;;;;;24.65;48.14;100481.69;5023592;28;20297;-85
2023/08/06 08:02:01;;;;;;;;;;;;;;;24.68;48.05;100472.78;5019001;28;19921;-85
2023/08/06 08:04:26;;;;;;;;;;;;;;;24.71;47.95;100474.81;5023697;28;20664;-84
2023/08/06 08:06:51;;;;;;;;;;;;;;;24.71;48.19;100466.59;5026287;28;19924;-84
2023/08/06 08:09:17;;;;;;;;;;;;;;;24.70;48.26;100454.03;5020975;28;19973;-85
2023/08/06 08:11:42;;;;;;;;;;;;;;;24.70;48.01;100454.03;5017159;28;19978;-84
2023/08/06 08:14:07;;;;;;;;;;;;;;;24.74;47.96;100454.91;5022812;28;19943;-85
2023/08/06 08:16:32;;;;;;;;;;;;;;;24.77;47.85;100454.22;5025948;28;19990;-85
2023/08/06 08:18:58;;;;;;;;;;;;;;;24.76;47.85;100452.63;5026225;28;19921;-85
2023/08/06 08:21:26;;;;;;;;;;;;;;;24.76;48.14;100447.16;5018666;28;19999;-85
2023/08/06 08:23:52;;;;;;;;;;;;;;;24.79;48.21;100448.41;5019293;28;20730;-85
2023/08/06 08:26:17;;;;;;;;;;;;;;;24.76;48.06;100449.88;5002156;28;19917;-85
2023/08/06 08:28:42;;;;;;;;;;;;;;;24.70;48.18;100446.63;5018516;28;19991;-85
2023/08/06 08:31:08;;;;;;;;;;;;;;;24.62;48.16;100447.59;5019091;28;20336;-84
2023/08/06 08:33:34;;;;;;;;;;;;;;;24.60;48.44;100444.41;5020305;28;19921;-85
2023/08/06 08:35:59;;;;;;;;;;;;;;;24.62;48.51;100433.09;5022901;28;19983;-85
2023/08/06 08:38:25;;;;;;;;;;;;;;;24.68;48.45;100435.22;5027436;28;19921;-85
2023/08/06 08:40:52;;;;;;;;;;;;;;;24.68;48.30;100427.00;5021131;28;19967;-85
2023/08/06 08:43:19;;;;;;;;;;;;;;;24.68;48.26;100423.47;5025626;28;19917;-83
2023/08/06 08:45:46;;;;;;;;;;;;;;;24.65;48.41;100421.44;5027294;28;19925;-86
2023/08/06 08:48:14;;;;;;;;;;;;;;;24.62;48.46;100413.91;5017588;28;19917;-86
2023/08/06 08:50:39;;;;;;;;;;;;;;;24.58;48.62;100413.00;5021034;28;20052;-85
2023/08/06 08:53:05;;;;;;;;;;;;;;;24.61;48.59;100413.13;5021150;28;19945;-84
2023/08/06 08:55:31;;;;;;;;;;;;;;;24.69;48.66;100400.41;5018483;28;19917;-85
2023/08/06 08:57:57;;;;;;;;;;;;;;;24.73;48.63;100397.75;5028628;28;20007;-85
2023/08/06 09:00:22;;;;;;;;;;;;;;;24.77;48.46;100401.38;5020316;28;20020;-85
2023/08/06 09:02:48;;;;;;;;;;;;;;;24.80;48.79;100393.25;5023802;28;19959;-85
2023/08/06 09:05:13;;;;;;;;;;;;;;;24.85;48.13;100398.47;5025019;28;20443;-85
2023/08/06 09:07:43;;;;;;;;;;;;;;;24.88;48.24;100400.50;5024182;28;19917;-85
2023/08/06 09:10:10;;;;;;;;;;;;;;;24.90;48.21;100402.88;5022721;28;20004;-85
2023/08/06 09:12:35;;;;;;;;;;;;;;;24.93;48.11;100402.19;5024065;28;20384;-85
2023/08/06 09:15:03;;;;;;;;;;;;;;;24.98;48.02;100390.97;5020951;28;19967;-84
2023/08/06 09:17:29;;;;;;;;;;;;;;;25.03;47.94;100395.41;5026669;28;19924;-84
2023/08/06 09:19:54;;;;;;;;;;;;;;;24.97;48.34;100387.44;5023449;28;20401;-85
2023/08/06 09:22:19;;;;;;;;;;;;;;;24.95;48.08;100392.44;5027182;28;19921;-85
2023/08/06 09:24:45;;;;;;;;;;;;;;;24.88;48.20;100384.06;5022874;28;19917;-85
2023/08/06 09:27:11;;;;;;;;;;;;;;;24.76;48.60;100384.13;5023082;28;19917;-85
2023/08/06 09:29:39;;;;;;;;;;;;;;;24.67;48.79;100378.03;5019238;28;20397;-85
2023/08/06 09:32:05;;;;;;;;;;;;;;;24.62;49.04;100375.56;5021805;28;20301;-84
2023/08/06 09:34:30;;;;;;;;;;;;;;;24.67;48.94;100372.56;5025689;28;19924;-85
2023/08/06 09:36:55;;;;;;;;;;;;;;;24.70;49.30;100367.16;5032301;28;20624;-84
2023/08/06 09:39:22;;;;;;;;;;;;;;;24.80;48.86;100362.34;5027032;28;19921;-84
2023/08/06 09:41:50;;;;;;;;;;;;;;;24.85;48.63;100357.38;5028695;28;19976;-86
2023/08/06 09:44:19;;;;;;;;;;;;;;;24.80;48.64;100354.91;5027788;28;19924;-85
2023/08/06 09:46:48;;;;;;;;;;;;;;;24.73;49.32;100342.97;5028246;28;20004;-85
2023/08/06 09:49:14;;;;;;;;;;;;;;;24.69;48.98;100349.16;5028288;28;19917;-85
2023/08/06 09:51:39;;;;;;;;;;;;;;;24.66;49.10;100344.38;5026371;28;20443;-85
2023/08/06 09:54:06;;;;;;;;;;;;;;;24.59;49.01;100338.69;5008478;28;19957;-85
2023/08/06 09:56:37;;;;;;;;;;;;;;;24.55;49.28;100340.56;5030224;28;19928;-85
2023/08/06 09:59:04;;;;;;;;;;;;;;;24.58;49.34;100341.78;5027182;28;19917;-85
2023/08/06 10:01:29;;;;;;;;;;;;;;;24.59;49.35;100337.91;5009268;28;20400;-85
2023/08/06 10:03:57;;;;;;;;;;;;;;;24.67;49.14;100334.22;5022598;28;19972;-85
2023/08/06 10:06:23;;;;;;;;;;;;;;;24.74;48.96;100328.09;5027820;28;20964;-85
2023/08/06 10:08:48;;;;;;;;;;;;;;;24.70;49.02;100325.28;5031868;28;20007;-85
2023/08/06 10:11:14;;;;;;;;;;;;;;;24.76;49.04;100317.59;5022626;28;20016;-85
2023/08/06 10:13:40;;;;;;;;;;;;;;;24.86;48.92;100320.59;5023166;28;20403;-85
2023/08/06 10:16:06;;;;;;;;;;;;;;;24.95;48.57;100315.72;5026004;28;20388;-85
2023/08/06 10:18:32;;;;;;;;;;;;;;;24.91;48.55;100312.09;5025104;28;19963;-85
2023/08/06 10:20:59;;;;;;;;;;;;;;;24.88;48.70;100310.06;5029804;28;19925;-86
2023/08/06 10:23:33;;;;;;;;;;;;;;;24.76;48.77;100317.59;5009414;28;20534;-86
2023/08/06 10:25:59;;;;;;;;;;;;;;;24.77;48.91;100319.19;5001556;28;19964;-85
2023/08/06 10:28:33;;;;;;;;;;;;;;;24.72;49.07;100320.25;5010738;28;19921;-85
2023/08/06 10:30:59;;;;;;;;;;;;;;;24.66;49.66;100316.97;5018786;28;20630;-85
2023/08/06 10:33:39;;;;;;;;;;;;;;;24.61;49.26;100317.25;5018517;28;19921;-85
2023/08/06 10:36:09;;;;;;;;;;;;;;;24.70;49.47;100314.31;4993245;28;20435;-85
2023/08/06 10:38:36;;;;;;;;;;;;;;;24.79;49.47;100306.75;5020164;28;20008;-85
2023/08/06 10:41:02;;;;;;;;;;;;;;;24.86;49.06;100306.09;5017994;28;19940;-85
2023/08/06 10:43:41;;;;;;;;;;;;;;;24.86;49.09;100303.38;5023345;28;19972;-84
2023/08/06 10:46:10;;;;;;;;;;;;;;;24.91;48.92;100301.16;5023262;28;19925;-85
2023/08/06 10:48:36;;;;;;;;;;;;;;;24.94;48.92;100289.47;5020765;28;20324;-85
2023/08/06 10:51:03;;;;;;;;;;;;;;;24.94;48.98;100292.22;5005150;28;19923;-85
2023/08/06 10:53:28;;;;;;;;;;;;;;;24.92;48.70;100291.78;5024377;28;19921;-84
2023/08/06 10:55:54;;;;;;;;;;;;;;;24.96;48.69;100289.94;5022484;28;20450;-85
2023/08/06 10:58:19;;;;;;;;;;;;;;;25.01;48.78;100283.41;5023800;28;19925;-84
2023/08/06 11:00:45;;;;;;;;;;;;;;;24.90;48.69;100279.56;5024816;28;19921;-85
2023/08/06 11:03:11;;;;;;;;;;;;;;;24.81;48.96;100263.34;5023205;28;19922;-85
2023/08/06 11:05:36;;;;;;;;;;;;;;;24.77;49.16;100262.44;5019275;28;19924;-85
2023/08/06 11:08:02;;;;;;;;;;;;;;;24.81;49.23;100266.09;5026389;28;19956;-86
2023/08/06 11:10:27;;;;;;;;;;;;;;;24.78;49.76;100261.31;5023592;28;19928;-85
2023/08/06 11:12:53;;;;;;;;;;;;;;;24.79;49.56;100251.16;5021976;28;20380;-85
2023/08/06 11:15:20;;;;;;;;;;;;;;;24.75;49.66;100248.31;5021844;28;20661;-85
2023/08/06 11:17:45;;;;;;;;;;;;;;;24.72;49.61;100249.03;5020100;28;19932;-85
2023/08/06 11:20:10;;;;;;;;;;;;;;;24.78;49.28;100233.13;4999595;28;19921;-85
2023/08/06 11:22:36;;;;;;;;;;;;;;;24.71;49.55;100231.78;5021716;28;20373;-85
2023/08/06 11:25:02;;;;;;;;;;;;;;;24.59;49.84;100237.34;5023955;28;19921;-86
2023/08/06 11:27:28;;;;;;;;;;;;;;;24.50;49.75;100231.28;5023419;28;19924;-85
2023/08/06 11:29:54;;;;;;;;;;;;;;;24.46;50.01;100232.34;5020865;28;19927;-85
2023/08/06 11:32:20;;;;;;;;;;;;;;;24.50;49.98;100225.00;5025848;28;19925;-85
2023/08/06 11:34:45;;;;;;;;;;;;;;;24.58;50.12;100233.03;5023051;28;19980;-85
2023/08/06 11:37:11;;;;;;;;;;;;;;;24.67;49.75;100217.22;5015776;28;19948;-85
2023/08/06 11:39:36;;;;;;;;;;;;;;;24.72;49.64;100218.88;5024543;28;20463;-86
2023/08/06 11:42:06;;;;;;;;;;;;;;;24.64;49.88;100217.94;5021085;28;19921;-85
2023/08/06 11:44:33;;;;;;;;;;;;;;;24.58;49.77;100221.28;5025146;28;19972;-86
2023/08/06 11:47:01;;;;;;;;;;;;;;;24.54;49.83;100203.97;5022150;28;19923;-86
2023/08/06 11:49:38;;;;;;;;;;;;;;;24.45;50.12;100206.13;5007771;28;19924;-86
2023/08/06 11:52:18;;;;;;;;;;;;;;;24.53;49.99;100208.66;5024409;28;20349;-86
2023/08/06 11:54:44;;;;;;;;;;;;;;;24.65;49.92;100199.56;5021925;28;20451;-86
2023/08/06 11:57:10;;;;;;;;;;;;;;;24.66;49.75;100204.69;5023249;28;19928;-85
2023/08/06 11:59:39;;;;;;;;;;;;;;;24.61;49.77;100196.75;5019115;28;19921;-85
2023/08/06 12:02:07;;;;;;;;;;;;;;;24.56;49.87;100197.00;5019438;28;20011;-86
2023/08/06 12:04:52;;;;;;;;;;;;;;;24.61;49.80;100191.25;5022309;28;19924;-86
2023/08/06 12:07:17;;;;;;;;;;;;;;;24.52;50.31;100192.59;5022974;28;20385;-87
2023/08/06 12:09:43;;;;;;;;;;;;;;;24.55;50.13;100197.34;5018246;28;19932;-87
2023/08/06 12:12:08;;;;;;;;;;;;;;;24.60;49.92;100191.63;5020018;28;20047;-85
2023/08/06 12:14:36;;;;;;;;;;;;;;;24.61;49.95;100188.53;5023513;28;19921;-87
2023/08/06 12:17:02;;;;;;;;;;;;;;;24.65;49.65;100197.59;5022272;28;20033;-86
2023/08/06 12:19:27;;;;;;;;;;;;;;;24.62;49.68;100192.84;5030892;28;20161;-86
2023/08/06 12:21:52;;;;;;;;;;;;;;;24.61;49.75;100191.25;5019452;28;19927;-86
2023/08/06 12:24:18;;;;;;;;;;;;;;;24.63;49.87;100179.94;5019537;28;19929;-86
2023/08/06 12:26:43;;;;;;;;;;;;;;;24.68;49.70;100172.25;5024134;28;19928;-87
2023/08/06 12:29:08;;;;;;;;;;;;;;;24.64;50.01;100182.31;5023408;28;19944;-86